sensor_id;sensor_type;location;lat;lon;timestamp;P1;durP1;ratioP1;P2;durP2;ratioP2
17566;SDS011;8901;52.088;5.084;2022-08-20T00:00:09;8.23;;;4.97;;
17566;SDS011;8901;52.088;5.084;2022-08-20T00:02:39;5.85;;;4.63;;
17566;SDS011;8901;52.088;5.084;2022-08-20T00:05:07;6.43;;;4.47;;
17566;SDS011;8901;52.088;5.084;2022-08-20T00:07:35;5.65;;;3.83;;
17566;SDS011;8901;52.088;5.084;2022-08-20T00:10:03;7.20;;;5.10;;
17566;SDS011;8901;52.088;5.084;2022-08-20T00:12:31;5.40;;;3.65;;
17566;SDS011;8901;52.088;5.084;2022-08-20T00:14:59;7.82;;;4.85;;
17566;SDS011;8901;52.088;5.084;2022-08-20T00:17:26;7.07;;;4.03;;
17566;SDS011;8901;52.088;5.084;2022-08-20T00:19:57;4.72;;;3.75;;
17566;SDS011;8901;52.088;5.084;2022-08-20T00:22:28;6.97;;;4.85;;
17566;SDS011;8901;52.088;5.084;2022-08-20T00:25:02;9.00;;;6.57;;
17566;SDS011;8901;52.088;5.084;2022-08-20T00:27:31;9.55;;;6.25;;
17566;SDS011;8901;52.088;5.084;2022-08-20T00:29:59;9.90;;;6.88;;
17566;SDS011;8901;52.088;5.084;2022-08-20T00:32:26;11.30;;;9.27;;
17566;SDS011;8901;52.088;5.084;2022-08-20T00:34:53;12.70;;;9.45;;
17566;SDS011;8901;52.088;5.084;2022-08-20T00:37:20;9.43;;;8.07;;
17566;SDS011;8901;52.088;5.084;2022-08-20T00:39:47;11.15;;;8.43;;
17566;SDS011;8901;52.088;5.084;2022-08-20T00:42:16;12.27;;;9.95;;
17566;SDS011;8901;52.088;5.084;2022-08-20T00:44:45;12.13;;;10.05;;
17566;SDS011;8901;52.088;5.084;2022-08-20T00:47:13;12.57;;;9.60;;
17566;SDS011;8901;52.088;5.084;2022-08-20T00:49:40;9.60;;;7.75;;
17566;SDS011;8901;52.088;5.084;2022-08-20T00:52:08;11.70;;;6.00;;
17566;SDS011;8901;52.088;5.084;2022-08-20T00:54:40;9.98;;;6.07;;
17566;SDS011;8901;52.088;5.084;2022-08-20T00:57:10;10.50;;;6.78;;
17566;SDS011;8901;52.088;5.084;2022-08-20T00:59:44;9.02;;;5.65;;
17566;SDS011;8901;52.088;5.084;2022-08-20T01:02:14;9.27;;;5.72;;
17566;SDS011;8901;52.088;5.084;2022-08-20T01:04:42;8.63;;;5.32;;
17566;SDS011;8901;52.088;5.084;2022-08-20T01:07:11;10.35;;;5.82;;
17566;SDS011;8901;52.088;5.084;2022-08-20T01:09:38;8.18;;;5.75;;
17566;SDS011;8901;52.088;5.084;2022-08-20T01:12:05;9.32;;;5.97;;
17566;SDS011;8901;52.088;5.084;2022-08-20T01:14:34;7.93;;;5.30;;
17566;SDS011;8901;52.088;5.084;2022-08-20T01:17:09;9.25;;;6.35;;
17566;SDS011;8901;52.088;5.084;2022-08-20T01:19:40;10.55;;;6.50;;
17566;SDS011;8901;52.088;5.084;2022-08-20T01:22:09;12.25;;;6.60;;
17566;SDS011;8901;52.088;5.084;2022-08-20T01:25:13;10.65;;;6.68;;
17566;SDS011;8901;52.088;5.084;2022-08-20T01:27:47;11.18;;;6.63;;
17566;SDS011;8901;52.088;5.084;2022-08-20T01:30:15;12.43;;;8.02;;
17566;SDS011;8901;52.088;5.084;2022-08-20T01:32:42;9.93;;;7.78;;
17566;SDS011;8901;52.088;5.084;2022-08-20T01:35:09;13.75;;;8.10;;
17566;SDS011;8901;52.088;5.084;2022-08-20T01:37:36;12.40;;;7.37;;
17566;SDS011;8901;52.088;5.084;2022-08-20T01:40:04;10.32;;;7.22;;
17566;SDS011;8901;52.088;5.084;2022-08-20T01:42:39;11.40;;;6.85;;
17566;SDS011;8901;52.088;5.084;2022-08-20T01:45:11;12.85;;;7.63;;
17566;SDS011;8901;52.088;5.084;2022-08-20T01:47:38;9.80;;;5.82;;
17566;SDS011;8901;52.088;5.084;2022-08-20T01:50:07;13.18;;;6.38;;
17566;SDS011;8901;52.088;5.084;2022-08-20T01:52:41;10.20;;;5.93;;
17566;SDS011;8901;52.088;5.084;2022-08-20T01:55:15;8.93;;;6.32;;
17566;SDS011;8901;52.088;5.084;2022-08-20T01:57:43;9.90;;;5.20;;
17566;SDS011;8901;52.088;5.084;2022-08-20T02:00:12;10.20;;;5.60;;
17566;SDS011;8901;52.088;5.084;2022-08-20T02:02:43;9.32;;;5.43;;
17566;SDS011;8901;52.088;5.084;2022-08-20T02:05:09;10.38;;;5.32;;
17566;SDS011;8901;52.088;5.084;2022-08-20T02:07:37;10.02;;;5.13;;
17566;SDS011;8901;52.088;5.084;2022-08-20T02:10:05;8.93;;;4.65;;
17566;SDS011;8901;52.088;5.084;2022-08-20T02:12:33;12.03;;;5.20;;
17566;SDS011;8901;52.088;5.084;2022-08-20T02:15:01;8.60;;;4.22;;
17566;SDS011;8901;52.088;5.084;2022-08-20T02:17:31;11.27;;;4.67;;
17566;SDS011;8901;52.088;5.084;2022-08-20T02:23:29;10.93;;;4.43;;
17566;SDS011;8901;52.088;5.084;2022-08-20T02:25:56;12.00;;;4.80;;
17566;SDS011;8901;52.088;5.084;2022-08-20T02:28:31;10.87;;;4.43;;
17566;SDS011;8901;52.088;5.084;2022-08-20T02:30:58;10.02;;;4.60;;
17566;SDS011;8901;52.088;5.084;2022-08-20T02:33:28;9.90;;;4.27;;
17566;SDS011;8901;52.088;5.084;2022-08-20T02:35:55;11.63;;;5.15;;
17566;SDS011;8901;52.088;5.084;2022-08-20T02:38:22;8.55;;;4.00;;
17566;SDS011;8901;52.088;5.084;2022-08-20T02:40:49;10.85;;;4.95;;
17566;SDS011;8901;52.088;5.084;2022-08-20T02:43:16;8.45;;;3.97;;
17566;SDS011;8901;52.088;5.084;2022-08-20T02:45:44;7.47;;;3.92;;
17566;SDS011;8901;52.088;5.084;2022-08-20T02:48:12;7.78;;;3.70;;
17566;SDS011;8901;52.088;5.084;2022-08-20T02:50:50;8.20;;;3.57;;
17566;SDS011;8901;52.088;5.084;2022-08-20T02:56:08;8.48;;;3.58;;
17566;SDS011;8901;52.088;5.084;2022-08-20T02:58:35;8.63;;;3.67;;
17566;SDS011;8901;52.088;5.084;2022-08-20T03:03:49;6.95;;;3.70;;
17566;SDS011;8901;52.088;5.084;2022-08-20T03:06:17;8.80;;;3.53;;
17566;SDS011;8901;52.088;5.084;2022-08-20T03:08:46;10.27;;;3.90;;
17566;SDS011;8901;52.088;5.084;2022-08-20T03:11:12;6.90;;;3.30;;
17566;SDS011;8901;52.088;5.084;2022-08-20T03:13:39;6.18;;;3.10;;
17566;SDS011;8901;52.088;5.084;2022-08-20T03:16:06;7.25;;;3.40;;
17566;SDS011;8901;52.088;5.084;2022-08-20T03:18:34;6.85;;;3.15;;
17566;SDS011;8901;52.088;5.084;2022-08-20T03:21:03;5.78;;;2.97;;
17566;SDS011;8901;52.088;5.084;2022-08-20T03:23:32;8.60;;;3.50;;
17566;SDS011;8901;52.088;5.084;2022-08-20T03:26:01;6.65;;;2.83;;
17566;SDS011;8901;52.088;5.084;2022-08-20T03:28:29;7.00;;;2.88;;
17566;SDS011;8901;52.088;5.084;2022-08-20T03:30:56;6.70;;;3.20;;
17566;SDS011;8901;52.088;5.084;2022-08-20T03:33:23;7.03;;;3.08;;
17566;SDS011;8901;52.088;5.084;2022-08-20T03:35:50;6.65;;;2.85;;
17566;SDS011;8901;52.088;5.084;2022-08-20T03:38:18;7.78;;;3.00;;
17566;SDS011;8901;52.088;5.084;2022-08-20T03:40:48;9.00;;;3.20;;
17566;SDS011;8901;52.088;5.084;2022-08-20T03:43:16;6.90;;;2.92;;
17566;SDS011;8901;52.088;5.084;2022-08-20T03:45:44;6.53;;;2.75;;
17566;SDS011;8901;52.088;5.084;2022-08-20T03:48:12;8.20;;;2.70;;
17566;SDS011;8901;52.088;5.084;2022-08-20T03:50:41;5.57;;;2.70;;
17566;SDS011;8901;52.088;5.084;2022-08-20T03:53:09;4.90;;;2.90;;
17566;SDS011;8901;52.088;5.084;2022-08-20T03:55:37;9.52;;;3.55;;
17566;SDS011;8901;52.088;5.084;2022-08-20T03:58:07;8.75;;;3.58;;
17566;SDS011;8901;52.088;5.084;2022-08-20T04:00:36;7.25;;;3.10;;
17566;SDS011;8901;52.088;5.084;2022-08-20T04:03:04;9.30;;;3.35;;
17566;SDS011;8901;52.088;5.084;2022-08-20T04:05:33;8.52;;;3.38;;
17566;SDS011;8901;52.088;5.084;2022-08-20T04:08:05;9.13;;;3.17;;
17566;SDS011;8901;52.088;5.084;2022-08-20T04:10:33;7.40;;;2.90;;
17566;SDS011;8901;52.088;5.084;2022-08-20T04:13:01;9.10;;;3.13;;
17566;SDS011;8901;52.088;5.084;2022-08-20T04:15:30;6.28;;;2.58;;
17566;SDS011;8901;52.088;5.084;2022-08-20T04:17:57;12.02;;;3.42;;
17566;SDS011;8901;52.088;5.084;2022-08-20T04:20:24;6.38;;;2.80;;
17566;SDS011;8901;52.088;5.084;2022-08-20T04:22:52;5.72;;;2.58;;
17566;SDS011;8901;52.088;5.084;2022-08-20T04:25:20;7.63;;;3.00;;
17566;SDS011;8901;52.088;5.084;2022-08-20T04:27:47;8.63;;;3.03;;
17566;SDS011;8901;52.088;5.084;2022-08-20T04:30:15;7.25;;;2.90;;
17566;SDS011;8901;52.088;5.084;2022-08-20T04:32:46;7.95;;;2.63;;
17566;SDS011;8901;52.088;5.084;2022-08-20T04:35:14;7.28;;;2.72;;
17566;SDS011;8901;52.088;5.084;2022-08-20T04:37:42;8.90;;;3.25;;
17566;SDS011;8901;52.088;5.084;2022-08-20T04:40:19;6.00;;;2.40;;
17566;SDS011;8901;52.088;5.084;2022-08-20T04:43:03;5.45;;;2.35;;
17566;SDS011;8901;52.088;5.084;2022-08-20T04:45:30;5.70;;;2.58;;
17566;SDS011;8901;52.088;5.084;2022-08-20T04:48:01;7.22;;;2.80;;
17566;SDS011;8901;52.088;5.084;2022-08-20T04:50:30;6.00;;;2.60;;
17566;SDS011;8901;52.088;5.084;2022-08-20T04:53:00;5.60;;;2.60;;
17566;SDS011;8901;52.088;5.084;2022-08-20T04:55:27;8.05;;;2.60;;
17566;SDS011;8901;52.088;5.084;2022-08-20T04:57:55;7.13;;;2.65;;
17566;SDS011;8901;52.088;5.084;2022-08-20T05:03:12;9.07;;;2.85;;
17566;SDS011;8901;52.088;5.084;2022-08-20T05:08:17;7.00;;;2.85;;
17566;SDS011;8901;52.088;5.084;2022-08-20T05:10:47;6.30;;;2.60;;
17566;SDS011;8901;52.088;5.084;2022-08-20T05:13:14;9.02;;;2.95;;
17566;SDS011;8901;52.088;5.084;2022-08-20T05:15:41;8.15;;;2.70;;
17566;SDS011;8901;52.088;5.084;2022-08-20T05:18:10;7.57;;;2.78;;
17566;SDS011;8901;52.088;5.084;2022-08-20T05:20:39;7.18;;;2.80;;
17566;SDS011;8901;52.088;5.084;2022-08-20T05:23:08;11.20;;;3.00;;
17566;SDS011;8901;52.088;5.084;2022-08-20T05:25:36;8.40;;;3.20;;
17566;SDS011;8901;52.088;5.084;2022-08-20T05:28:05;5.30;;;2.95;;
17566;SDS011;8901;52.088;5.084;2022-08-20T05:30:34;8.18;;;2.90;;
17566;SDS011;8901;52.088;5.084;2022-08-20T05:33:02;6.80;;;3.20;;
17566;SDS011;8901;52.088;5.084;2022-08-20T05:35:31;15.02;;;3.85;;
17566;SDS011;8901;52.088;5.084;2022-08-20T05:37:59;12.85;;;3.38;;
17566;SDS011;8901;52.088;5.084;2022-08-20T05:40:27;7.28;;;3.30;;
17566;SDS011;8901;52.088;5.084;2022-08-20T05:42:54;7.10;;;2.72;;
17566;SDS011;8901;52.088;5.084;2022-08-20T05:45:21;9.07;;;3.13;;
17566;SDS011;8901;52.088;5.084;2022-08-20T05:47:48;6.95;;;3.42;;
17566;SDS011;8901;52.088;5.084;2022-08-20T05:50:15;6.38;;;3.13;;
17566;SDS011;8901;52.088;5.084;2022-08-20T05:52:44;7.97;;;3.30;;
17566;SDS011;8901;52.088;5.084;2022-08-20T05:55:11;7.90;;;3.30;;
17566;SDS011;8901;52.088;5.084;2022-08-20T05:57:39;9.30;;;3.63;;
17566;SDS011;8901;52.088;5.084;2022-08-20T06:00:08;7.40;;;3.10;;
17566;SDS011;8901;52.088;5.084;2022-08-20T06:02:37;9.40;;;3.10;;
17566;SDS011;8901;52.088;5.084;2022-08-20T06:05:21;13.37;;;3.23;;
17566;SDS011;8901;52.088;5.084;2022-08-20T06:07:51;7.23;;;3.23;;
17566;SDS011;8901;52.088;5.084;2022-08-20T06:10:18;11.15;;;4.10;;
17566;SDS011;8901;52.088;5.084;2022-08-20T06:12:45;10.77;;;3.80;;
17566;SDS011;8901;52.088;5.084;2022-08-20T06:15:12;9.77;;;3.97;;
17566;SDS011;8901;52.088;5.084;2022-08-20T06:17:39;8.32;;;3.15;;
17566;SDS011;8901;52.088;5.084;2022-08-20T06:20:07;13.82;;;3.75;;
17566;SDS011;8901;52.088;5.084;2022-08-20T06:22:35;7.90;;;2.90;;
17566;SDS011;8901;52.088;5.084;2022-08-20T06:25:04;8.20;;;2.95;;
17566;SDS011;8901;52.088;5.084;2022-08-20T06:27:32;9.33;;;3.50;;
17566;SDS011;8901;52.088;5.084;2022-08-20T06:30:02;7.60;;;2.90;;
17566;SDS011;8901;52.088;5.084;2022-08-20T06:32:30;10.70;;;3.43;;
17566;SDS011;8901;52.088;5.084;2022-08-20T06:34:57;7.00;;;2.80;;
17566;SDS011;8901;52.088;5.084;2022-08-20T06:37:26;7.23;;;3.03;;
17566;SDS011;8901;52.088;5.084;2022-08-20T06:39:58;9.70;;;3.30;;
17566;SDS011;8901;52.088;5.084;2022-08-20T06:42:28;10.17;;;3.10;;
17566;SDS011;8901;52.088;5.084;2022-08-20T06:44:54;11.87;;;3.27;;
17566;SDS011;8901;52.088;5.084;2022-08-20T06:47:23;8.23;;;3.03;;
17566;SDS011;8901;52.088;5.084;2022-08-20T06:49:50;7.27;;;3.17;;
17566;SDS011;8901;52.088;5.084;2022-08-20T06:52:17;6.23;;;2.70;;
17566;SDS011;8901;52.088;5.084;2022-08-20T06:54:44;10.27;;;2.90;;
17566;SDS011;8901;52.088;5.084;2022-08-20T06:57:11;10.32;;;3.42;;
17566;SDS011;8901;52.088;5.084;2022-08-20T06:59:39;7.65;;;3.40;;
17566;SDS011;8901;52.088;5.084;2022-08-20T07:02:06;11.20;;;4.10;;
17566;SDS011;8901;52.088;5.084;2022-08-20T07:04:34;8.40;;;4.18;;
17566;SDS011;8901;52.088;5.084;2022-08-20T07:07:01;9.90;;;4.70;;
17566;SDS011;8901;52.088;5.084;2022-08-20T07:09:28;7.45;;;3.72;;
17566;SDS011;8901;52.088;5.084;2022-08-20T07:11:55;9.30;;;7.57;;
17566;SDS011;8901;52.088;5.084;2022-08-20T07:14:22;10.35;;;7.07;;
17566;SDS011;8901;52.088;5.084;2022-08-20T07:16:50;12.35;;;10.73;;
17566;SDS011;8901;52.088;5.084;2022-08-20T07:19:17;9.98;;;8.77;;
17566;SDS011;8901;52.088;5.084;2022-08-20T07:21:44;15.00;;;12.48;;
17566;SDS011;8901;52.088;5.084;2022-08-20T07:24:12;12.32;;;11.07;;
17566;SDS011;8901;52.088;5.084;2022-08-20T07:26:39;16.02;;;13.60;;
17566;SDS011;8901;52.088;5.084;2022-08-20T07:29:06;11.38;;;10.27;;
17566;SDS011;8901;52.088;5.084;2022-08-20T07:31:33;13.05;;;11.90;;
17566;SDS011;8901;52.088;5.084;2022-08-20T07:34:18;14.10;;;12.88;;
17566;SDS011;8901;52.088;5.084;2022-08-20T07:36:45;16.52;;;14.98;;
17566;SDS011;8901;52.088;5.084;2022-08-20T07:39:14;15.73;;;13.75;;
17566;SDS011;8901;52.088;5.084;2022-08-20T07:41:41;11.23;;;8.63;;
17566;SDS011;8901;52.088;5.084;2022-08-20T07:44:08;12.73;;;9.23;;
17566;SDS011;8901;52.088;5.084;2022-08-20T07:46:35;16.30;;;14.75;;
17566;SDS011;8901;52.088;5.084;2022-08-20T07:49:01;14.57;;;13.35;;
17566;SDS011;8901;52.088;5.084;2022-08-20T07:51:30;19.08;;;17.73;;
17566;SDS011;8901;52.088;5.084;2022-08-20T07:53:57;19.25;;;17.70;;
17566;SDS011;8901;52.088;5.084;2022-08-20T07:56:24;19.63;;;17.98;;
17566;SDS011;8901;52.088;5.084;2022-08-20T07:58:52;19.88;;;18.25;;
17566;SDS011;8901;52.088;5.084;2022-08-20T08:01:23;20.70;;;19.00;;
17566;SDS011;8901;52.088;5.084;2022-08-20T08:03:52;19.75;;;17.80;;
17566;SDS011;8901;52.088;5.084;2022-08-20T08:06:21;20.48;;;18.77;;
17566;SDS011;8901;52.088;5.084;2022-08-20T08:08:50;20.83;;;19.13;;
17566;SDS011;8901;52.088;5.084;2022-08-20T08:11:18;21.08;;;19.48;;
17566;SDS011;8901;52.088;5.084;2022-08-20T08:13:45;21.40;;;19.65;;
17566;SDS011;8901;52.088;5.084;2022-08-20T08:16:12;21.40;;;19.70;;
17566;SDS011;8901;52.088;5.084;2022-08-20T08:18:40;21.30;;;19.65;;
17566;SDS011;8901;52.088;5.084;2022-08-20T08:21:10;21.75;;;19.90;;
17566;SDS011;8901;52.088;5.084;2022-08-20T08:23:38;20.15;;;18.10;;
17566;SDS011;8901;52.088;5.084;2022-08-20T08:26:10;18.20;;;16.70;;
17566;SDS011;8901;52.088;5.084;2022-08-20T08:28:38;20.02;;;18.20;;
17566;SDS011;8901;52.088;5.084;2022-08-20T08:31:06;18.30;;;17.08;;
17566;SDS011;8901;52.088;5.084;2022-08-20T08:33:33;15.07;;;13.52;;
17566;SDS011;8901;52.088;5.084;2022-08-20T08:36:01;14.35;;;13.13;;
17566;SDS011;8901;52.088;5.084;2022-08-20T08:38:31;20.00;;;18.40;;
17566;SDS011;8901;52.088;5.084;2022-08-20T08:41:02;23.85;;;21.88;;
17566;SDS011;8901;52.088;5.084;2022-08-20T08:43:37;23.35;;;21.55;;
17566;SDS011;8901;52.088;5.084;2022-08-20T08:46:06;22.17;;;20.38;;
17566;SDS011;8901;52.088;5.084;2022-08-20T08:48:36;22.70;;;20.83;;
17566;SDS011;8901;52.088;5.084;2022-08-20T08:51:08;22.65;;;20.65;;
17566;SDS011;8901;52.088;5.084;2022-08-20T08:53:38;21.20;;;19.50;;
17566;SDS011;8901;52.088;5.084;2022-08-20T08:56:10;20.90;;;19.30;;
17566;SDS011;8901;52.088;5.084;2022-08-20T08:58:41;22.25;;;20.50;;
17566;SDS011;8901;52.088;5.084;2022-08-20T09:01:09;21.95;;;20.30;;
17566;SDS011;8901;52.088;5.084;2022-08-20T09:03:38;20.48;;;18.65;;
17566;SDS011;8901;52.088;5.084;2022-08-20T09:06:11;16.90;;;15.25;;
17566;SDS011;8901;52.088;5.084;2022-08-20T09:08:42;22.63;;;20.48;;
17566;SDS011;8901;52.088;5.084;2022-08-20T09:11:12;20.70;;;19.00;;
17566;SDS011;8901;52.088;5.084;2022-08-20T09:13:42;22.92;;;21.08;;
17566;SDS011;8901;52.088;5.084;2022-08-20T09:16:09;23.17;;;21.38;;
17566;SDS011;8901;52.088;5.084;2022-08-20T09:18:36;19.80;;;18.20;;
17566;SDS011;8901;52.088;5.084;2022-08-20T09:21:03;19.83;;;18.10;;
17566;SDS011;8901;52.088;5.084;2022-08-20T09:23:31;18.45;;;16.90;;
17566;SDS011;8901;52.088;5.084;2022-08-20T09:25:59;22.83;;;20.77;;
17566;SDS011;8901;52.088;5.084;2022-08-20T09:28:28;18.65;;;17.05;;
17566;SDS011;8901;52.088;5.084;2022-08-20T09:30:58;22.15;;;19.63;;
17566;SDS011;8901;52.088;5.084;2022-08-20T09:33:25;22.13;;;20.52;;
17566;SDS011;8901;52.088;5.084;2022-08-20T09:35:52;23.80;;;21.73;;
17566;SDS011;8901;52.088;5.084;2022-08-20T09:38:19;23.20;;;21.50;;
17566;SDS011;8901;52.088;5.084;2022-08-20T09:40:46;23.92;;;21.73;;
17566;SDS011;8901;52.088;5.084;2022-08-20T09:43:13;22.80;;;20.98;;
17566;SDS011;8901;52.088;5.084;2022-08-20T09:45:40;22.27;;;20.52;;
17566;SDS011;8901;52.088;5.084;2022-08-20T09:48:08;22.65;;;20.77;;
17566;SDS011;8901;52.088;5.084;2022-08-20T09:50:35;22.80;;;20.85;;
17566;SDS011;8901;52.088;5.084;2022-08-20T09:53:11;18.20;;;16.88;;
17566;SDS011;8901;52.088;5.084;2022-08-20T09:55:39;20.25;;;18.55;;
17566;SDS011;8901;52.088;5.084;2022-08-20T09:58:10;24.35;;;22.33;;
17566;SDS011;8901;52.088;5.084;2022-08-20T10:00:42;23.85;;;21.90;;
17566;SDS011;8901;52.088;5.084;2022-08-20T10:03:10;24.33;;;22.42;;
17566;SDS011;8901;52.088;5.084;2022-08-20T10:05:37;24.05;;;22.08;;
17566;SDS011;8901;52.088;5.084;2022-08-20T10:08:05;23.48;;;21.63;;
17566;SDS011;8901;52.088;5.084;2022-08-20T10:10:32;23.75;;;21.42;;
17566;SDS011;8901;52.088;5.084;2022-08-20T10:12:59;23.70;;;21.70;;
17566;SDS011;8901;52.088;5.084;2022-08-20T10:15:26;21.08;;;19.25;;
17566;SDS011;8901;52.088;5.084;2022-08-20T10:17:53;23.55;;;21.75;;
17566;SDS011;8901;52.088;5.084;2022-08-20T10:20:23;24.00;;;22.05;;
17566;SDS011;8901;52.088;5.084;2022-08-20T10:22:50;23.13;;;21.17;;
17566;SDS011;8901;52.088;5.084;2022-08-20T10:25:17;22.52;;;20.35;;
17566;SDS011;8901;52.088;5.084;2022-08-20T10:27:44;25.60;;;22.02;;
17566;SDS011;8901;52.088;5.084;2022-08-20T10:30:12;24.38;;;22.02;;
17566;SDS011;8901;52.088;5.084;2022-08-20T10:32:42;17.60;;;16.20;;
17566;SDS011;8901;52.088;5.084;2022-08-20T10:35:11;27.33;;;22.90;;
17566;SDS011;8901;52.088;5.084;2022-08-20T10:37:39;24.33;;;22.42;;
17566;SDS011;8901;52.088;5.084;2022-08-20T10:40:07;21.35;;;19.65;;
17566;SDS011;8901;52.088;5.084;2022-08-20T10:42:35;21.90;;;20.50;;
17566;SDS011;8901;52.088;5.084;2022-08-20T10:45:02;23.70;;;21.77;;
17566;SDS011;8901;52.088;5.084;2022-08-20T10:47:30;23.05;;;21.08;;
17566;SDS011;8901;52.088;5.084;2022-08-20T10:49:58;23.40;;;21.50;;
17566;SDS011;8901;52.088;5.084;2022-08-20T10:52:27;20.13;;;18.50;;
17566;SDS011;8901;52.088;5.084;2022-08-20T10:54:56;20.83;;;19.10;;
17566;SDS011;8901;52.088;5.084;2022-08-20T10:57:23;19.67;;;17.98;;
17566;SDS011;8901;52.088;5.084;2022-08-20T10:59:52;23.65;;;21.63;;
17566;SDS011;8901;52.088;5.084;2022-08-20T11:02:20;23.23;;;21.33;;
17566;SDS011;8901;52.088;5.084;2022-08-20T11:04:47;22.33;;;20.45;;
17566;SDS011;8901;52.088;5.084;2022-08-20T11:07:16;22.88;;;21.13;;
17566;SDS011;8901;52.088;5.084;2022-08-20T11:12:35;21.15;;;19.65;;
17566;SDS011;8901;52.088;5.084;2022-08-20T11:15:02;23.02;;;20.98;;
17566;SDS011;8901;52.088;5.084;2022-08-20T11:17:31;21.50;;;20.10;;
17566;SDS011;8901;52.088;5.084;2022-08-20T11:20:02;23.65;;;21.42;;
17566;SDS011;8901;52.088;5.084;2022-08-20T11:22:32;24.00;;;22.27;;
17566;SDS011;8901;52.088;5.084;2022-08-20T11:24:59;24.63;;;22.35;;
17566;SDS011;8901;52.088;5.084;2022-08-20T11:27:30;22.23;;;20.42;;
17566;SDS011;8901;52.088;5.084;2022-08-20T11:29:59;22.15;;;19.90;;
17566;SDS011;8901;52.088;5.084;2022-08-20T11:32:26;21.38;;;19.67;;
17566;SDS011;8901;52.088;5.084;2022-08-20T11:34:54;24.33;;;22.25;;
17566;SDS011;8901;52.088;5.084;2022-08-20T11:37:21;20.40;;;18.63;;
17566;SDS011;8901;52.088;5.084;2022-08-20T11:39:50;20.35;;;18.73;;
17566;SDS011;8901;52.088;5.084;2022-08-20T11:42:18;17.65;;;16.35;;
17566;SDS011;8901;52.088;5.084;2022-08-20T11:44:46;21.30;;;19.67;;
17566;SDS011;8901;52.088;5.084;2022-08-20T11:47:18;23.73;;;21.75;;
17566;SDS011;8901;52.088;5.084;2022-08-20T11:49:54;21.33;;;19.65;;
17566;SDS011;8901;52.088;5.084;2022-08-20T11:52:24;22.98;;;21.00;;
17566;SDS011;8901;52.088;5.084;2022-08-20T11:54:57;19.35;;;17.75;;
17566;SDS011;8901;52.088;5.084;2022-08-20T11:57:25;22.50;;;20.60;;
17566;SDS011;8901;52.088;5.084;2022-08-20T12:00:03;24.58;;;22.45;;
17566;SDS011;8901;52.088;5.084;2022-08-20T12:02:34;23.30;;;21.50;;
17566;SDS011;8901;52.088;5.084;2022-08-20T12:05:12;23.73;;;21.73;;
17566;SDS011;8901;52.088;5.084;2022-08-20T12:07:39;24.73;;;22.20;;
17566;SDS011;8901;52.088;5.084;2022-08-20T12:10:06;23.92;;;21.92;;
17566;SDS011;8901;52.088;5.084;2022-08-20T12:12:37;19.77;;;18.27;;
17566;SDS011;8901;52.088;5.084;2022-08-20T12:15:06;20.95;;;19.42;;
17566;SDS011;8901;52.088;5.084;2022-08-20T12:17:35;18.85;;;17.13;;
17566;SDS011;8901;52.088;5.084;2022-08-20T12:20:04;16.92;;;15.55;;
17566;SDS011;8901;52.088;5.084;2022-08-20T12:22:32;22.50;;;20.60;;
17566;SDS011;8901;52.088;5.084;2022-08-20T12:24:59;20.83;;;19.10;;
17566;SDS011;8901;52.088;5.084;2022-08-20T12:27:27;21.80;;;20.05;;
17566;SDS011;8901;52.088;5.084;2022-08-20T12:29:56;22.80;;;21.00;;
17566;SDS011;8901;52.088;5.084;2022-08-20T12:32:27;18.45;;;16.92;;
17566;SDS011;8901;52.088;5.084;2022-08-20T12:34:55;21.65;;;19.80;;
17566;SDS011;8901;52.088;5.084;2022-08-20T12:37:24;19.70;;;18.27;;
17566;SDS011;8901;52.088;5.084;2022-08-20T12:39:54;20.00;;;18.25;;
17566;SDS011;8901;52.088;5.084;2022-08-20T12:42:22;24.50;;;22.50;;
17566;SDS011;8901;52.088;5.084;2022-08-20T12:44:50;22.00;;;20.10;;
17566;SDS011;8901;52.088;5.084;2022-08-20T12:47:20;22.83;;;20.77;;
17566;SDS011;8901;52.088;5.084;2022-08-20T12:49:53;22.40;;;20.50;;
17566;SDS011;8901;52.088;5.084;2022-08-20T12:52:23;22.55;;;20.52;;
17566;SDS011;8901;52.088;5.084;2022-08-20T12:54:51;19.63;;;17.95;;
17566;SDS011;8901;52.088;5.084;2022-08-20T12:57:22;24.17;;;22.15;;
17566;SDS011;8901;52.088;5.084;2022-08-20T12:59:53;23.05;;;21.17;;
17566;SDS011;8901;52.088;5.084;2022-08-20T13:02:23;24.20;;;21.38;;
17566;SDS011;8901;52.088;5.084;2022-08-20T13:04:53;22.65;;;20.85;;
17566;SDS011;8901;52.088;5.084;2022-08-20T13:07:21;22.45;;;20.77;;
17566;SDS011;8901;52.088;5.084;2022-08-20T13:09:48;20.50;;;18.90;;
17566;SDS011;8901;52.088;5.084;2022-08-20T13:14:49;23.60;;;21.40;;
17566;SDS011;8901;52.088;5.084;2022-08-20T13:17:16;23.98;;;21.90;;
17566;SDS011;8901;52.088;5.084;2022-08-20T13:19:44;20.98;;;19.40;;
17566;SDS011;8901;52.088;5.084;2022-08-20T13:22:13;22.50;;;20.85;;
17566;SDS011;8901;52.088;5.084;2022-08-20T13:27:43;21.10;;;19.58;;
17566;SDS011;8901;52.088;5.084;2022-08-20T13:30:10;19.35;;;17.70;;
17566;SDS011;8901;52.088;5.084;2022-08-20T13:32:39;21.40;;;19.80;;
17566;SDS011;8901;52.088;5.084;2022-08-20T13:35:06;21.23;;;19.63;;
17566;SDS011;8901;52.088;5.084;2022-08-20T13:37:37;19.73;;;18.27;;
17566;SDS011;8901;52.088;5.084;2022-08-20T13:40:05;22.20;;;20.45;;
17566;SDS011;8901;52.088;5.084;2022-08-20T13:42:34;21.13;;;19.23;;
17566;SDS011;8901;52.088;5.084;2022-08-20T13:45:01;22.52;;;20.48;;
17566;SDS011;8901;52.088;5.084;2022-08-20T13:47:29;21.45;;;19.92;;
17566;SDS011;8901;52.088;5.084;2022-08-20T13:49:58;23.65;;;21.27;;
17566;SDS011;8901;52.088;5.084;2022-08-20T13:52:27;23.67;;;21.48;;
17566;SDS011;8901;52.088;5.084;2022-08-20T13:54:55;23.38;;;21.38;;
17566;SDS011;8901;52.088;5.084;2022-08-20T13:57:23;22.65;;;20.42;;
17566;SDS011;8901;52.088;5.084;2022-08-20T13:59:51;22.65;;;20.60;;
17566;SDS011;8901;52.088;5.084;2022-08-20T14:02:25;21.02;;;19.23;;
17566;SDS011;8901;52.088;5.084;2022-08-20T14:04:52;22.35;;;20.38;;
17566;SDS011;8901;52.088;5.084;2022-08-20T14:07:21;21.98;;;20.27;;
17566;SDS011;8901;52.088;5.084;2022-08-20T14:09:50;22.23;;;20.35;;
17566;SDS011;8901;52.088;5.084;2022-08-20T14:12:20;20.13;;;18.45;;
17566;SDS011;8901;52.088;5.084;2022-08-20T14:14:48;23.73;;;21.60;;
17566;SDS011;8901;52.088;5.084;2022-08-20T14:17:16;22.77;;;20.35;;
17566;SDS011;8901;52.088;5.084;2022-08-20T14:19:45;17.95;;;16.40;;
17566;SDS011;8901;52.088;5.084;2022-08-20T14:22:12;22.42;;;20.58;;
17566;SDS011;8901;52.088;5.084;2022-08-20T14:24:41;21.05;;;19.17;;
17566;SDS011;8901;52.088;5.084;2022-08-20T14:27:08;22.85;;;20.95;;
17566;SDS011;8901;52.088;5.084;2022-08-20T14:29:38;22.20;;;20.50;;
17566;SDS011;8901;52.088;5.084;2022-08-20T14:32:06;22.98;;;21.13;;
17566;SDS011;8901;52.088;5.084;2022-08-20T14:34:33;21.35;;;19.92;;
17566;SDS011;8901;52.088;5.084;2022-08-20T14:37:08;20.80;;;19.13;;
17566;SDS011;8901;52.088;5.084;2022-08-20T14:39:36;21.77;;;19.88;;
17566;SDS011;8901;52.088;5.084;2022-08-20T14:42:03;20.25;;;18.35;;
17566;SDS011;8901;52.088;5.084;2022-08-20T14:44:30;23.17;;;21.02;;
17566;SDS011;8901;52.088;5.084;2022-08-20T14:46:58;19.42;;;17.65;;
17566;SDS011;8901;52.088;5.084;2022-08-20T14:49:35;22.23;;;20.80;;
17566;SDS011;8901;52.088;5.084;2022-08-20T14:52:02;18.50;;;16.90;;
17566;SDS011;8901;52.088;5.084;2022-08-20T14:54:29;23.80;;;21.80;;
17566;SDS011;8901;52.088;5.084;2022-08-20T14:56:56;19.27;;;17.70;;
17566;SDS011;8901;52.088;5.084;2022-08-20T14:59:23;22.83;;;21.05;;
17566;SDS011;8901;52.088;5.084;2022-08-20T15:01:50;24.40;;;22.45;;
17566;SDS011;8901;52.088;5.084;2022-08-20T15:04:18;21.40;;;19.85;;
17566;SDS011;8901;52.088;5.084;2022-08-20T15:06:45;22.83;;;21.00;;
17566;SDS011;8901;52.088;5.084;2022-08-20T15:09:12;22.40;;;20.70;;
17566;SDS011;8901;52.088;5.084;2022-08-20T15:11:39;19.48;;;17.88;;
17566;SDS011;8901;52.088;5.084;2022-08-20T15:14:06;21.52;;;20.02;;
17566;SDS011;8901;52.088;5.084;2022-08-20T15:16:33;21.95;;;20.35;;